KAVP/AVP METAR and TAF weather

Enter ICAO airport designator
Station Type Date Time Source
KAVP METAR 2019/11/18 11:54 UTC NOAA

KAVP 181154Z AUTO 00000KT 10SM OVC011 01/M02 A2992 RMK AO2 SLP139 T00111022 10011 20000 55006 $


Station Type Date Time Source
KAVP Decoded METAR 2019/11/18 11:54 UTC NOAA

WILKES-BARRE/SCRANTON INTERNATIONAL , PA, United States (KAVP) 41-20N 75-44W 291M
Nov 18, 2019 - 06:54 AM EST / 2019.11.18 1154 UTC
Wind: Calm:0
Visibility: 10 mile(s):0
Sky conditions: overcast
Temperature: 34.0 F (1.1 C)
Dew Point: 28.0 F (-2.2 C)
Relative Humidity: 78%
Pressure (altimeter): 29.92 in. Hg (1013 hPa)
Pressure tendency: 0.02 inches (0.6 hPa) lower than three hours ago
ob: KAVP 181154Z AUTO 00000KT 10SM OVC011 01/M02 A2992 RMK AO2 SLP139 T00111022 10011 20000 55006
cycle: 12

Station Type Date Time Source
KAVP TAF 2019/11/18 12:27 UTC NOAA

TAF KAVP 181124Z 1812/1912 06005KT P6SM OVC010
FM181600 05005KT P6SM OVC020
FM190100 00000KT P6SM OVC008
FM190900 00000KT P6SM BKN014

Example: see airport list